sensor_id;sensor_type;location;lat;lon;timestamp;temperature;humidity
52209;DHT22;38507;53.132;6.394;2023-08-06T00:00:21;14.10;99.90
52209;DHT22;38507;53.132;6.394;2023-08-06T00:02:47;14.10;99.90
52209;DHT22;38507;53.132;6.394;2023-08-06T00:05:13;14.20;99.90
52209;DHT22;38507;53.132;6.394;2023-08-06T00:07:38;14.10;99.90
52209;DHT22;38507;53.132;6.394;2023-08-06T00:10:05;14.10;99.90
52209;DHT22;38507;53.132;6.394;2023-08-06T00:12:30;14.10;99.90
52209;DHT22;38507;53.132;6.394;2023-08-06T00:14:56;14.10;99.90
52209;DHT22;38507;53.132;6.394;2023-08-06T00:17:21;14.20;99.90
52209;DHT22;38507;53.132;6.394;2023-08-06T00:19:47;14.10;99.90
52209;DHT22;38507;53.132;6.394;2023-08-06T00:22:13;14.00;99.90
52209;DHT22;38507;53.132;6.394;2023-08-06T00:24:38;14.10;99.90
52209;DHT22;38507;53.132;6.394;2023-08-06T00:27:04;14.10;99.90
52209;DHT22;38507;53.132;6.394;2023-08-06T00:29:30;14.10;99.90
52209;DHT22;38507;53.132;6.394;2023-08-06T00:31:56;14.20;99.90
52209;DHT22;38507;53.132;6.394;2023-08-06T00:34:21;14.10;99.90
52209;DHT22;38507;53.132;6.394;2023-08-06T00:36:47;14.10;99.90
52209;DHT22;38507;53.132;6.394;2023-08-06T00:39:13;14.10;99.90
52209;DHT22;38507;53.132;6.394;2023-08-06T00:41:39;14.10;99.90
52209;DHT22;38507;53.132;6.394;2023-08-06T00:44:04;14.20;99.90
52209;DHT22;38507;53.132;6.394;2023-08-06T00:46:31;14.10;99.90
52209;DHT22;38507;53.132;6.394;2023-08-06T00:48:57;14.20;99.90
52209;DHT22;38507;53.132;6.394;2023-08-06T00:51:24;14.20;99.90
52209;DHT22;38507;53.132;6.394;2023-08-06T00:53:50;14.20;99.90
52209;DHT22;38507;53.132;6.394;2023-08-06T00:56:17;14.20;99.90
52209;DHT22;38507;53.132;6.394;2023-08-06T00:58:43;14.10;99.90
52209;DHT22;38507;53.132;6.394;2023-08-06T01:01:09;14.10;99.90
52209;DHT22;38507;53.132;6.394;2023-08-06T01:03:35;14.20;99.90
52209;DHT22;38507;53.132;6.394;2023-08-06T01:06:01;14.10;99.90
52209;DHT22;38507;53.132;6.394;2023-08-06T01:08:50;14.10;99.90
52209;DHT22;38507;53.132;6.394;2023-08-06T01:11:48;14.10;99.90
52209;DHT22;38507;53.132;6.394;2023-08-06T01:14:28;14.10;99.90
52209;DHT22;38507;53.132;6.394;2023-08-06T01:16:57;14.10;99.90
52209;DHT22;38507;53.132;6.394;2023-08-06T01:19:24;14.10;99.90
52209;DHT22;38507;53.132;6.394;2023-08-06T01:21:49;14.10;99.90
52209;DHT22;38507;53.132;6.394;2023-08-06T01:24:15;14.10;99.90
52209;DHT22;38507;53.132;6.394;2023-08-06T01:27:03;14.10;99.90
52209;DHT22;38507;53.132;6.394;2023-08-06T01:29:39;14.10;99.90
52209;DHT22;38507;53.132;6.394;2023-08-06T01:32:08;14.00;99.90
52209;DHT22;38507;53.132;6.394;2023-08-06T01:34:38;14.10;99.90
52209;DHT22;38507;53.132;6.394;2023-08-06T01:37:04;14.10;99.90
52209;DHT22;38507;53.132;6.394;2023-08-06T01:39:33;14.10;99.90
52209;DHT22;38507;53.132;6.394;2023-08-06T01:41:59;14.10;99.90
52209;DHT22;38507;53.132;6.394;2023-08-06T01:44:24;14.10;99.90
52209;DHT22;38507;53.132;6.394;2023-08-06T01:46:50;14.10;99.90
52209;DHT22;38507;53.132;6.394;2023-08-06T01:49:15;14.10;99.90
52209;DHT22;38507;53.132;6.394;2023-08-06T01:51:41;14.10;99.90
52209;DHT22;38507;53.132;6.394;2023-08-06T01:54:07;14.10;99.90
52209;DHT22;38507;53.132;6.394;2023-08-06T01:56:32;14.00;99.90
52209;DHT22;38507;53.132;6.394;2023-08-06T01:58:58;14.00;99.90
52209;DHT22;38507;53.132;6.394;2023-08-06T02:01:23;14.10;99.90
52209;DHT22;38507;53.132;6.394;2023-08-06T02:03:49;14.10;99.90
52209;DHT22;38507;53.132;6.394;2023-08-06T02:06:15;14.00;99.90
52209;DHT22;38507;53.132;6.394;2023-08-06T02:08:40;14.00;99.90
52209;DHT22;38507;53.132;6.394;2023-08-06T02:11:06;14.10;99.90
52209;DHT22;38507;53.132;6.394;2023-08-06T02:13:32;14.10;99.90
52209;DHT22;38507;53.132;6.394;2023-08-06T02:15:57;14.10;99.90
52209;DHT22;38507;53.132;6.394;2023-08-06T02:18:23;14.00;99.90
52209;DHT22;38507;53.132;6.394;2023-08-06T02:20:58;14.10;99.90
52209;DHT22;38507;53.132;6.394;2023-08-06T02:23:24;14.00;99.90
52209;DHT22;38507;53.132;6.394;2023-08-06T02:26:17;14.10;99.90
52209;DHT22;38507;53.132;6.394;2023-08-06T02:28:42;14.00;99.90
52209;DHT22;38507;53.132;6.394;2023-08-06T02:31:08;14.00;99.90
52209;DHT22;38507;53.132;6.394;2023-08-06T02:33:34;14.00;99.90
52209;DHT22;38507;53.132;6.394;2023-08-06T02:36:03;14.00;99.90
52209;DHT22;38507;53.132;6.394;2023-08-06T02:38:30;14.00;99.90
52209;DHT22;38507;53.132;6.394;2023-08-06T02:40:56;14.00;99.90
52209;DHT22;38507;53.132;6.394;2023-08-06T02:43:21;14.10;99.90
52209;DHT22;38507;53.132;6.394;2023-08-06T02:45:47;14.10;99.90
52209;DHT22;38507;53.132;6.394;2023-08-06T02:48:13;14.20;99.90
52209;DHT22;38507;53.132;6.394;2023-08-06T02:50:42;14.10;99.90
52209;DHT22;38507;53.132;6.394;2023-08-06T02:53:08;14.10;99.90
52209;DHT22;38507;53.132;6.394;2023-08-06T02:55:34;14.10;99.90
52209;DHT22;38507;53.132;6.394;2023-08-06T02:58:03;14.00;99.90
52209;DHT22;38507;53.132;6.394;2023-08-06T03:00:29;14.10;99.90
52209;DHT22;38507;53.132;6.394;2023-08-06T03:02:54;14.00;99.90
52209;DHT22;38507;53.132;6.394;2023-08-06T03:05:20;13.80;99.90
52209;DHT22;38507;53.132;6.394;2023-08-06T03:07:46;14.00;99.90
52209;DHT22;38507;53.132;6.394;2023-08-06T03:10:11;14.00;99.90
52209;DHT22;38507;53.132;6.394;2023-08-06T03:12:38;14.10;99.90
52209;DHT22;38507;53.132;6.394;2023-08-06T03:15:04;14.00;99.90
52209;DHT22;38507;53.132;6.394;2023-08-06T03:17:30;14.10;99.90
52209;DHT22;38507;53.132;6.394;2023-08-06T03:19:56;14.10;99.90
52209;DHT22;38507;53.132;6.394;2023-08-06T03:22:21;14.00;99.90
52209;DHT22;38507;53.132;6.394;2023-08-06T03:24:50;14.10;99.90
52209;DHT22;38507;53.132;6.394;2023-08-06T03:27:16;14.10;99.90
52209;DHT22;38507;53.132;6.394;2023-08-06T03:29:42;14.10;99.90
52209;DHT22;38507;53.132;6.394;2023-08-06T03:32:07;14.10;99.90
52209;DHT22;38507;53.132;6.394;2023-08-06T03:34:33;14.10;99.90
52209;DHT22;38507;53.132;6.394;2023-08-06T03:36:59;14.10;99.90
52209;DHT22;38507;53.132;6.394;2023-08-06T03:39:24;14.10;99.90
52209;DHT22;38507;53.132;6.394;2023-08-06T03:41:50;14.10;99.90
52209;DHT22;38507;53.132;6.394;2023-08-06T03:44:15;14.10;99.90
52209;DHT22;38507;53.132;6.394;2023-08-06T03:46:41;14.10;99.90
52209;DHT22;38507;53.132;6.394;2023-08-06T03:49:07;14.10;99.90
52209;DHT22;38507;53.132;6.394;2023-08-06T03:51:32;14.10;99.90
52209;DHT22;38507;53.132;6.394;2023-08-06T03:53:58;14.10;99.90
52209;DHT22;38507;53.132;6.394;2023-08-06T03:56:23;14.20;99.90
52209;DHT22;38507;53.132;6.394;2023-08-06T03:58:49;14.10;99.90
52209;DHT22;38507;53.132;6.394;2023-08-06T04:01:15;14.10;99.90
52209;DHT22;38507;53.132;6.394;2023-08-06T04:03:40;14.10;99.90
52209;DHT22;38507;53.132;6.394;2023-08-06T04:06:06;14.20;99.90
52209;DHT22;38507;53.132;6.394;2023-08-06T04:08:32;14.20;99.90
52209;DHT22;38507;53.132;6.394;2023-08-06T04:10:58;14.10;99.90
52209;DHT22;38507;53.132;6.394;2023-08-06T04:13:23;14.10;99.90
52209;DHT22;38507;53.132;6.394;2023-08-06T04:15:49;14.00;99.90
52209;DHT22;38507;53.132;6.394;2023-08-06T04:18:16;14.20;99.90
52209;DHT22;38507;53.132;6.394;2023-08-06T04:20:47;14.10;99.90
52209;DHT22;38507;53.132;6.394;2023-08-06T04:23:15;14.10;99.90
52209;DHT22;38507;53.132;6.394;2023-08-06T04:25:40;14.20;99.90
52209;DHT22;38507;53.132;6.394;2023-08-06T04:28:07;14.10;99.90
52209;DHT22;38507;53.132;6.394;2023-08-06T04:30:33;14.20;99.90
52209;DHT22;38507;53.132;6.394;2023-08-06T04:32:58;14.20;99.90
52209;DHT22;38507;53.132;6.394;2023-08-06T04:35:24;14.20;99.90
52209;DHT22;38507;53.132;6.394;2023-08-06T04:37:50;14.20;99.90
52209;DHT22;38507;53.132;6.394;2023-08-06T04:40:15;14.20;99.90
52209;DHT22;38507;53.132;6.394;2023-08-06T04:42:41;14.20;99.90
52209;DHT22;38507;53.132;6.394;2023-08-06T04:45:07;14.20;99.90
52209;DHT22;38507;53.132;6.394;2023-08-06T04:47:33;14.20;99.90
52209;DHT22;38507;53.132;6.394;2023-08-06T04:49:58;14.30;99.90
52209;DHT22;38507;53.132;6.394;2023-08-06T04:52:24;14.20;99.90
52209;DHT22;38507;53.132;6.394;2023-08-06T04:54:53;14.30;99.90
52209;DHT22;38507;53.132;6.394;2023-08-06T04:57:18;14.30;99.90
52209;DHT22;38507;53.132;6.394;2023-08-06T04:59:45;14.30;99.90
52209;DHT22;38507;53.132;6.394;2023-08-06T05:02:11;14.40;99.90
52209;DHT22;38507;53.132;6.394;2023-08-06T05:04:36;14.40;99.90
52209;DHT22;38507;53.132;6.394;2023-08-06T05:07:03;14.40;99.90
52209;DHT22;38507;53.132;6.394;2023-08-06T05:09:28;14.40;99.90
52209;DHT22;38507;53.132;6.394;2023-08-06T05:11:54;14.50;99.90
52209;DHT22;38507;53.132;6.394;2023-08-06T05:14:19;14.50;99.90
52209;DHT22;38507;53.132;6.394;2023-08-06T05:16:45;14.60;99.90
52209;DHT22;38507;53.132;6.394;2023-08-06T05:19:11;14.60;99.90
52209;DHT22;38507;53.132;6.394;2023-08-06T05:21:36;14.80;99.90
52209;DHT22;38507;53.132;6.394;2023-08-06T05:24:02;14.80;99.90
52209;DHT22;38507;53.132;6.394;2023-08-06T05:26:27;14.80;99.90
52209;DHT22;38507;53.132;6.394;2023-08-06T05:28:53;14.80;99.90
52209;DHT22;38507;53.132;6.394;2023-08-06T05:31:19;14.80;99.90
52209;DHT22;38507;53.132;6.394;2023-08-06T05:33:44;14.90;99.90
52209;DHT22;38507;53.132;6.394;2023-08-06T05:36:10;14.90;99.90
52209;DHT22;38507;53.132;6.394;2023-08-06T05:38:35;14.90;99.90
52209;DHT22;38507;53.132;6.394;2023-08-06T05:41:01;14.90;99.90
52209;DHT22;38507;53.132;6.394;2023-08-06T05:43:27;14.90;99.90
52209;DHT22;38507;53.132;6.394;2023-08-06T05:45:52;14.90;99.90
52209;DHT22;38507;53.132;6.394;2023-08-06T05:48:18;15.00;99.90
52209;DHT22;38507;53.132;6.394;2023-08-06T05:50:43;15.00;99.90
52209;DHT22;38507;53.132;6.394;2023-08-06T05:53:09;15.00;99.90
52209;DHT22;38507;53.132;6.394;2023-08-06T05:55:35;15.10;99.90
52209;DHT22;38507;53.132;6.394;2023-08-06T05:58:01;15.20;99.90
52209;DHT22;38507;53.132;6.394;2023-08-06T06:00:26;15.10;99.90
52209;DHT22;38507;53.132;6.394;2023-08-06T06:02:52;15.20;99.90
52209;DHT22;38507;53.132;6.394;2023-08-06T06:05:18;15.10;99.90
52209;DHT22;38507;53.132;6.394;2023-08-06T06:07:43;15.20;99.90
52209;DHT22;38507;53.132;6.394;2023-08-06T06:10:09;15.20;99.90
52209;DHT22;38507;53.132;6.394;2023-08-06T06:12:34;15.30;99.90
52209;DHT22;38507;53.132;6.394;2023-08-06T06:15:00;15.20;99.90
52209;DHT22;38507;53.132;6.394;2023-08-06T06:17:27;15.40;99.90
52209;DHT22;38507;53.132;6.394;2023-08-06T06:19:53;15.30;99.90
52209;DHT22;38507;53.132;6.394;2023-08-06T06:22:18;15.30;99.90
52209;DHT22;38507;53.132;6.394;2023-08-06T06:24:44;15.30;99.90
52209;DHT22;38507;53.132;6.394;2023-08-06T06:27:10;15.40;99.90
52209;DHT22;38507;53.132;6.394;2023-08-06T06:29:35;15.40;99.90
52209;DHT22;38507;53.132;6.394;2023-08-06T06:32:01;15.50;99.90
52209;DHT22;38507;53.132;6.394;2023-08-06T06:34:26;15.50;99.90
52209;DHT22;38507;53.132;6.394;2023-08-06T06:36:52;15.60;99.90
52209;DHT22;38507;53.132;6.394;2023-08-06T06:39:18;15.60;99.90
52209;DHT22;38507;53.132;6.394;2023-08-06T06:41:43;15.80;99.90
52209;DHT22;38507;53.132;6.394;2023-08-06T06:44:09;15.80;99.90
52209;DHT22;38507;53.132;6.394;2023-08-06T06:46:35;15.80;99.90
52209;DHT22;38507;53.132;6.394;2023-08-06T06:49:01;15.80;99.90
52209;DHT22;38507;53.132;6.394;2023-08-06T06:51:26;15.90;99.90
52209;DHT22;38507;53.132;6.394;2023-08-06T06:53:52;15.90;99.90
52209;DHT22;38507;53.132;6.394;2023-08-06T06:56:17;16.00;99.90
52209;DHT22;38507;53.132;6.394;2023-08-06T06:58:43;16.00;99.90
52209;DHT22;38507;53.132;6.394;2023-08-06T07:01:09;16.00;99.90
52209;DHT22;38507;53.132;6.394;2023-08-06T07:03:37;16.10;99.90
52209;DHT22;38507;53.132;6.394;2023-08-06T07:06:03;16.10;99.90
52209;DHT22;38507;53.132;6.394;2023-08-06T07:08:29;16.20;99.90
52209;DHT22;38507;53.132;6.394;2023-08-06T07:11:05;16.30;99.90
52209;DHT22;38507;53.132;6.394;2023-08-06T07:13:32;16.30;99.90
52209;DHT22;38507;53.132;6.394;2023-08-06T07:15:58;16.30;99.90
52209;DHT22;38507;53.132;6.394;2023-08-06T07:18:24;16.40;99.90
52209;DHT22;38507;53.132;6.394;2023-08-06T07:20:51;16.50;99.90
52209;DHT22;38507;53.132;6.394;2023-08-06T07:23:17;16.60;99.90
52209;DHT22;38507;53.132;6.394;2023-08-06T07:25:42;16.70;99.90
52209;DHT22;38507;53.132;6.394;2023-08-06T07:28:09;16.70;99.90
52209;DHT22;38507;53.132;6.394;2023-08-06T07:30:38;16.80;99.90
52209;DHT22;38507;53.132;6.394;2023-08-06T07:33:04;16.90;99.90
52209;DHT22;38507;53.132;6.394;2023-08-06T07:35:30;16.90;99.90
52209;DHT22;38507;53.132;6.394;2023-08-06T07:37:55;17.10;99.90
52209;DHT22;38507;53.132;6.394;2023-08-06T07:40:21;17.10;99.90
52209;DHT22;38507;53.132;6.394;2023-08-06T07:42:47;17.30;99.90
52209;DHT22;38507;53.132;6.394;2023-08-06T07:45:12;17.30;99.90
52209;DHT22;38507;53.132;6.394;2023-08-06T07:47:38;17.40;99.90
52209;DHT22;38507;53.132;6.394;2023-08-06T07:50:04;17.60;99.90
52209;DHT22;38507;53.132;6.394;2023-08-06T07:52:29;17.90;99.90
52209;DHT22;38507;53.132;6.394;2023-08-06T07:54:55;18.10;99.90
52209;DHT22;38507;53.132;6.394;2023-08-06T07:57:21;18.30;99.90
52209;DHT22;38507;53.132;6.394;2023-08-06T07:59:46;18.40;99.90
52209;DHT22;38507;53.132;6.394;2023-08-06T08:02:12;18.60;99.90
52209;DHT22;38507;53.132;6.394;2023-08-06T08:04:37;18.60;99.90
52209;DHT22;38507;53.132;6.394;2023-08-06T08:07:03;18.80;99.90
52209;DHT22;38507;53.132;6.394;2023-08-06T08:09:29;18.90;99.90
52209;DHT22;38507;53.132;6.394;2023-08-06T08:11:55;19.00;99.90
52209;DHT22;38507;53.132;6.394;2023-08-06T08:14:20;19.10;99.90
52209;DHT22;38507;53.132;6.394;2023-08-06T08:16:46;19.20;99.90
52209;DHT22;38507;53.132;6.394;2023-08-06T08:19:12;19.30;99.90
52209;DHT22;38507;53.132;6.394;2023-08-06T08:21:37;19.50;99.90
52209;DHT22;38507;53.132;6.394;2023-08-06T08:24:04;19.70;99.90
52209;DHT22;38507;53.132;6.394;2023-08-06T08:26:30;19.80;99.90
52209;DHT22;38507;53.132;6.394;2023-08-06T08:28:56;19.90;99.90
52209;DHT22;38507;53.132;6.394;2023-08-06T08:31:22;20.00;99.90
52209;DHT22;38507;53.132;6.394;2023-08-06T08:33:47;20.10;99.90
52209;DHT22;38507;53.132;6.394;2023-08-06T08:36:13;20.30;99.90
52209;DHT22;38507;53.132;6.394;2023-08-06T08:38:39;20.40;99.90
52209;DHT22;38507;53.132;6.394;2023-08-06T08:41:05;20.60;99.90
52209;DHT22;38507;53.132;6.394;2023-08-06T08:43:31;20.70;99.90
52209;DHT22;38507;53.132;6.394;2023-08-06T08:45:57;20.80;99.90
52209;DHT22;38507;53.132;6.394;2023-08-06T08:48:27;20.90;99.90
52209;DHT22;38507;53.132;6.394;2023-08-06T08:50:53;21.10;99.90
52209;DHT22;38507;53.132;6.394;2023-08-06T08:53:21;21.20;99.90
52209;DHT22;38507;53.132;6.394;2023-08-06T08:55:49;21.30;99.90
52209;DHT22;38507;53.132;6.394;2023-08-06T08:58:15;21.30;99.90
52209;DHT22;38507;53.132;6.394;2023-08-06T09:00:46;21.30;99.90
52209;DHT22;38507;53.132;6.394;2023-08-06T09:03:13;21.50;99.90
52209;DHT22;38507;53.132;6.394;2023-08-06T09:05:46;21.60;99.90
52209;DHT22;38507;53.132;6.394;2023-08-06T09:08:18;21.60;99.90
52209;DHT22;38507;53.132;6.394;2023-08-06T09:10:44;21.90;99.90
52209;DHT22;38507;53.132;6.394;2023-08-06T09:13:12;21.90;99.90
52209;DHT22;38507;53.132;6.394;2023-08-06T09:15:38;21.80;99.90
52209;DHT22;38507;53.132;6.394;2023-08-06T09:18:10;21.90;99.90
52209;DHT22;38507;53.132;6.394;2023-08-06T09:20:38;22.00;99.90
52209;DHT22;38507;53.132;6.394;2023-08-06T09:23:08;22.10;99.90
52209;DHT22;38507;53.132;6.394;2023-08-06T09:25:38;21.90;99.90
52209;DHT22;38507;53.132;6.394;2023-08-06T09:28:05;22.00;99.90
52209;DHT22;38507;53.132;6.394;2023-08-06T09:30:33;22.00;99.90
52209;DHT22;38507;53.132;6.394;2023-08-06T09:32:59;22.00;99.90
52209;DHT22;38507;53.132;6.394;2023-08-06T09:35:25;22.10;99.90
52209;DHT22;38507;53.132;6.394;2023-08-06T09:37:50;22.10;99.90
52209;DHT22;38507;53.132;6.394;2023-08-06T09:40:29;22.10;99.90
52209;DHT22;38507;53.132;6.394;2023-08-06T09:42:56;22.00;99.90
52209;DHT22;38507;53.132;6.394;2023-08-06T09:45:22;22.00;99.90
52209;DHT22;38507;53.132;6.394;2023-08-06T09:47:55;22.00;99.90
52209;DHT22;38507;53.132;6.394;2023-08-06T09:50:21;22.10;99.90
52209;DHT22;38507;53.132;6.394;2023-08-06T09:52:47;22.20;99.90
52209;DHT22;38507;53.132;6.394;2023-08-06T09:55:16;22.20;99.90
52209;DHT22;38507;53.132;6.394;2023-08-06T09:57:42;22.20;99.90
52209;DHT22;38507;53.132;6.394;2023-08-06T10:00:09;22.40;99.90
52209;DHT22;38507;53.132;6.394;2023-08-06T10:02:37;22.50;99.90
52209;DHT22;38507;53.132;6.394;2023-08-06T10:05:04;22.70;99.90
52209;DHT22;38507;53.132;6.394;2023-08-06T10:07:30;22.70;99.90
52209;DHT22;38507;53.132;6.394;2023-08-06T10:09:56;22.70;99.90
52209;DHT22;38507;53.132;6.394;2023-08-06T10:12:23;22.90;99.90
52209;DHT22;38507;53.132;6.394;2023-08-06T10:14:55;22.90;99.90
52209;DHT22;38507;53.132;6.394;2023-08-06T10:17:22;22.90;99.90
52209;DHT22;38507;53.132;6.394;2023-08-06T10:19:50;23.00;99.90
52209;DHT22;38507;53.132;6.394;2023-08-06T10:22:17;23.10;99.90
52209;DHT22;38507;53.132;6.394;2023-08-06T10:24:59;23.20;99.90
52209;DHT22;38507;53.132;6.394;2023-08-06T10:30:28;23.20;99.90
52209;DHT22;38507;53.132;6.394;2023-08-06T10:32:59;23.30;99.90
52209;DHT22;38507;53.132;6.394;2023-08-06T10:35:38;23.20;99.90
52209;DHT22;38507;53.132;6.394;2023-08-06T10:43:30;23.30;99.90
52209;DHT22;38507;53.132;6.394;2023-08-06T10:45:59;23.30;99.90
52209;DHT22;38507;53.132;6.394;2023-08-06T10:48:29;23.20;99.90
52209;DHT22;38507;53.132;6.394;2023-08-06T10:50:56;23.30;99.90
52209;DHT22;38507;53.132;6.394;2023-08-06T10:53:22;23.40;99.90
52209;DHT22;38507;53.132;6.394;2023-08-06T10:55:48;23.30;99.90
52209;DHT22;38507;53.132;6.394;2023-08-06T10:58:15;23.50;99.90
52209;DHT22;38507;53.132;6.394;2023-08-06T11:00:42;23.40;99.90
52209;DHT22;38507;53.132;6.394;2023-08-06T11:03:08;23.30;99.90
52209;DHT22;38507;53.132;6.394;2023-08-06T11:05:35;23.30;99.90
52209;DHT22;38507;53.132;6.394;2023-08-06T11:08:01;23.50;99.90
52209;DHT22;38507;53.132;6.394;2023-08-06T11:10:27;23.70;99.90
52209;DHT22;38507;53.132;6.394;2023-08-06T11:12:53;23.70;99.90
52209;DHT22;38507;53.132;6.394;2023-08-06T11:15:20;23.90;99.90
52209;DHT22;38507;53.132;6.394;2023-08-06T11:17:46;24.10;99.90
52209;DHT22;38507;53.132;6.394;2023-08-06T11:20:12;24.00;99.90
52209;DHT22;38507;53.132;6.394;2023-08-06T11:22:38;24.10;99.90
52209;DHT22;38507;53.132;6.394;2023-08-06T11:25:06;24.30;99.90
52209;DHT22;38507;53.132;6.394;2023-08-06T11:27:32;24.40;99.90
52209;DHT22;38507;53.132;6.394;2023-08-06T11:29:57;24.50;99.90
52209;DHT22;38507;53.132;6.394;2023-08-06T11:32:23;24.50;99.90
52209;DHT22;38507;53.132;6.394;2023-08-06T11:34:49;24.50;99.90
52209;DHT22;38507;53.132;6.394;2023-08-06T11:37:14;24.60;99.90
52209;DHT22;38507;53.132;6.394;2023-08-06T11:39:46;24.60;99.90
52209;DHT22;38507;53.132;6.394;2023-08-06T11:42:13;24.90;99.90
52209;DHT22;38507;53.132;6.394;2023-08-06T11:44:40;24.90;99.90
52209;DHT22;38507;53.132;6.394;2023-08-06T11:47:13;25.00;99.90
52209;DHT22;38507;53.132;6.394;2023-08-06T11:52:23;25.10;99.90
52209;DHT22;38507;53.132;6.394;2023-08-06T11:55:07;25.00;99.90
52209;DHT22;38507;53.132;6.394;2023-08-06T11:57:34;24.90;99.90
52209;DHT22;38507;53.132;6.394;2023-08-06T12:00:09;24.90;99.90
52209;DHT22;38507;53.132;6.394;2023-08-06T12:02:35;24.90;99.90
52209;DHT22;38507;53.132;6.394;2023-08-06T12:05:11;25.00;99.90
52209;DHT22;38507;53.132;6.394;2023-08-06T12:07:41;24.70;99.90
52209;DHT22;38507;53.132;6.394;2023-08-06T12:10:07;24.60;99.90
52209;DHT22;38507;53.132;6.394;2023-08-06T12:12:34;24.50;99.90
52209;DHT22;38507;53.132;6.394;2023-08-06T12:15:00;24.40;99.90
52209;DHT22;38507;53.132;6.394;2023-08-06T12:17:26;24.30;99.90
52209;DHT22;38507;53.132;6.394;2023-08-06T12:19:52;24.30;99.90
52209;DHT22;38507;53.132;6.394;2023-08-06T12:22:18;24.30;99.90
52209;DHT22;38507;53.132;6.394;2023-08-06T12:24:45;24.30;99.90
52209;DHT22;38507;53.132;6.394;2023-08-06T12:27:11;24.30;99.90
52209;DHT22;38507;53.132;6.394;2023-08-06T12:29:47;24.40;99.90
52209;DHT22;38507;53.132;6.394;2023-08-06T12:32:14;24.20;99.90
52209;DHT22;38507;53.132;6.394;2023-08-06T12:34:43;24.20;99.90
52209;DHT22;38507;53.132;6.394;2023-08-06T12:37:09;23.90;99.90
52209;DHT22;38507;53.132;6.394;2023-08-06T12:39:36;23.80;99.90
52209;DHT22;38507;53.132;6.394;2023-08-06T12:42:03;23.70;99.90
52209;DHT22;38507;53.132;6.394;2023-08-06T12:44:29;23.80;99.90
52209;DHT22;38507;53.132;6.394;2023-08-06T12:46:55;23.90;99.90
52209;DHT22;38507;53.132;6.394;2023-08-06T12:49:21;23.90;99.90
52209;DHT22;38507;53.132;6.394;2023-08-06T12:51:50;24.00;99.90
52209;DHT22;38507;53.132;6.394;2023-08-06T12:54:17;24.10;99.90
52209;DHT22;38507;53.132;6.394;2023-08-06T12:56:44;24.30;99.90
52209;DHT22;38507;53.132;6.394;2023-08-06T12:59:09;24.30;99.90
52209;DHT22;38507;53.132;6.394;2023-08-06T13:01:36;24.20;99.90
52209;DHT22;38507;53.132;6.394;2023-08-06T13:04:02;24.40;99.90
52209;DHT22;38507;53.132;6.394;2023-08-06T13:06:28;24.60;99.90
52209;DHT22;38507;53.132;6.394;2023-08-06T13:08:54;24.50;99.90
52209;DHT22;38507;53.132;6.394;2023-08-06T13:11:19;24.60;99.90
52209;DHT22;38507;53.132;6.394;2023-08-06T13:13:45;24.80;99.90
52209;DHT22;38507;53.132;6.394;2023-08-06T13:16:10;25.00;99.90
52209;DHT22;38507;53.132;6.394;2023-08-06T13:18:36;25.20;99.90
52209;DHT22;38507;53.132;6.394;2023-08-06T13:21:02;25.00;99.90
52209;DHT22;38507;53.132;6.394;2023-08-06T13:23:27;24.90;99.90
52209;DHT22;38507;53.132;6.394;2023-08-06T13:25:53;25.00;99.90
52209;DHT22;38507;53.132;6.394;2023-08-06T13:28:19;24.50;99.90
52209;DHT22;38507;53.132;6.394;2023-08-06T13:30:45;24.40;99.90
52209;DHT22;38507;53.132;6.394;2023-08-06T13:33:11;24.50;99.90
52209;DHT22;38507;53.132;6.394;2023-08-06T13:35:37;24.70;99.90
52209;DHT22;38507;53.132;6.394;2023-08-06T13:38:03;24.80;99.90
52209;DHT22;38507;53.132;6.394;2023-08-06T13:40:31;24.70;99.90
52209;DHT22;38507;53.132;6.394;2023-08-06T13:42:57;24.80;99.90
52209;DHT22;38507;53.132;6.394;2023-08-06T13:45:23;24.70;99.90
52209;DHT22;38507;53.132;6.394;2023-08-06T13:47:49;24.80;99.90
52209;DHT22;38507;53.132;6.394;2023-08-06T13:50:15;24.90;99.90
52209;DHT22;38507;53.132;6.394;2023-08-06T13:52:41;25.10;99.90
52209;DHT22;38507;53.132;6.394;2023-08-06T13:55:06;25.10;99.90
52209;DHT22;38507;53.132;6.394;2023-08-06T13:57:33;25.00;99.90
52209;DHT22;38507;53.132;6.394;2023-08-06T13:59:59;25.10;99.90
52209;DHT22;38507;53.132;6.394;2023-08-06T14:02:25;24.90;99.90
52209;DHT22;38507;53.132;6.394;2023-08-06T14:04:52;24.80;99.90
52209;DHT22;38507;53.132;6.394;2023-08-06T14:07:18;24.50;99.90
52209;DHT22;38507;53.132;6.394;2023-08-06T14:09:44;24.50;99.90
52209;DHT22;38507;53.132;6.394;2023-08-06T14:12:10;24.40;99.90
52209;DHT22;38507;53.132;6.394;2023-08-06T14:14:35;24.50;99.90
52209;DHT22;38507;53.132;6.394;2023-08-06T14:17:01;24.30;99.90
52209;DHT22;38507;53.132;6.394;2023-08-06T14:19:27;24.40;99.90
52209;DHT22;38507;53.132;6.394;2023-08-06T14:21:54;24.60;99.90
52209;DHT22;38507;53.132;6.394;2023-08-06T14:24:21;24.80;99.90
52209;DHT22;38507;53.132;6.394;2023-08-06T14:26:46;24.90;99.90
52209;DHT22;38507;53.132;6.394;2023-08-06T14:29:12;24.90;99.90
52209;DHT22;38507;53.132;6.394;2023-08-06T14:31:39;24.90;99.90
52209;DHT22;38507;53.132;6.394;2023-08-06T14:34:05;24.70;99.90
52209;DHT22;38507;53.132;6.394;2023-08-06T14:36:30;24.80;99.90
52209;DHT22;38507;53.132;6.394;2023-08-06T14:38:56;24.50;99.90
52209;DHT22;38507;53.132;6.394;2023-08-06T14:41:21;24.00;99.90
52209;DHT22;38507;53.132;6.394;2023-08-06T14:43:47;24.20;99.90
52209;DHT22;38507;53.132;6.394;2023-08-06T14:46:13;24.30;99.90
52209;DHT22;38507;53.132;6.394;2023-08-06T14:48:38;24.50;99.90
52209;DHT22;38507;53.132;6.394;2023-08-06T14:51:04;24.80;99.90
52209;DHT22;38507;53.132;6.394;2023-08-06T14:53:30;24.70;99.90
52209;DHT22;38507;53.132;6.394;2023-08-06T14:55:56;24.60;99.90
52209;DHT22;38507;53.132;6.394;2023-08-06T14:58:21;24.70;99.90
52209;DHT22;38507;53.132;6.394;2023-08-06T15:00:47;24.80;99.90
52209;DHT22;38507;53.132;6.394;2023-08-06T15:03:13;24.70;99.90
52209;DHT22;38507;53.132;6.394;2023-08-06T15:05:38;24.50;99.90
52209;DHT22;38507;53.132;6.394;2023-08-06T15:08:04;24.80;99.90
52209;DHT22;38507;53.132;6.394;2023-08-06T15:10:29;24.50;99.90
52209;DHT22;38507;53.132;6.394;2023-08-06T15:12:55;24.50;99.90
52209;DHT22;38507;53.132;6.394;2023-08-06T15:15:21;24.70;99.90
52209;DHT22;38507;53.132;6.394;2023-08-06T15:17:50;24.50;99.90
52209;DHT22;38507;53.132;6.394;2023-08-06T15:20:15;24.30;99.90
52209;DHT22;38507;53.132;6.394;2023-08-06T15:22:41;24.70;99.90
52209;DHT22;38507;53.132;6.394;2023-08-06T15:25:07;24.50;99.90
52209;DHT22;38507;53.132;6.394;2023-08-06T15:27:32;24.70;99.90
52209;DHT22;38507;53.132;6.394;2023-08-06T15:29:59;24.60;99.90
52209;DHT22;38507;53.132;6.394;2023-08-06T15:32:25;24.80;99.90
52209;DHT22;38507;53.132;6.394;2023-08-06T15:34:51;24.90;99.90
52209;DHT22;38507;53.132;6.394;2023-08-06T15:37:17;25.00;99.90